createdAt,value
2017-06-20T00:00:04.848Z,91.83
2017-06-20T00:01:13.739Z,92.65
2017-06-20T00:02:22.636Z,92.22
2017-06-20T00:03:32.004Z,92.85
2017-06-20T00:04:40.900Z,91.11
2017-06-20T00:05:49.796Z,91.5
2017-06-20T00:06:58.689Z,91.98
2017-06-20T00:08:08.231Z,91.98
2017-06-20T00:09:17.370Z,92.22
2017-06-20T00:10:26.914Z,92.32
2017-06-20T00:11:36.457Z,93.28
2017-06-20T00:12:45.349Z,92.9
2017-06-20T00:13:54.566Z,92.61
2017-06-20T00:15:04.268Z,92.99
2017-06-20T00:16:13.164Z,92.71
2017-06-20T00:17:22.382Z,92.41
2017-06-20T00:18:31.272Z,92.13
2017-06-20T00:19:40.166Z,92.9
2017-06-20T00:20:49.863Z,92.8
2017-06-20T00:21:58.757Z,92.99
2017-06-20T00:23:07.651Z,92.99
2017-06-20T00:24:17.193Z,92.99
2017-06-20T00:25:26.410Z,93.66
2017-06-20T00:26:35.351Z,93.48
2017-06-20T00:27:44.242Z,93.66
2017-06-20T00:28:53.465Z,93.38
2017-06-20T00:30:02.685Z,93.38
2017-06-20T00:31:11.583Z,93.57
2017-06-20T00:32:21.425Z,93.86
2017-06-20T00:33:30.641Z,93.76
2017-06-20T00:34:39.530Z,93.81
2017-06-20T00:35:48.744Z,94.34
2017-06-20T00:36:57.960Z,93.72
2017-06-20T00:38:06.852Z,93.96
2017-06-20T00:39:16.070Z,94.44
2017-06-20T00:40:24.962Z,93.43
2017-06-20T00:41:33.861Z,94.2
2017-06-20T00:42:42.751Z,93.91
2017-06-20T00:43:51.638Z,93.43
2017-06-20T00:45:00.853Z,93.81
2017-06-20T00:46:09.745Z,92.56
2017-06-20T00:47:18.640Z,93.04
2017-06-20T00:48:27.861Z,93.72
2017-06-20T00:49:36.902Z,93.33
2017-06-20T00:50:45.794Z,92.94
2017-06-20T00:51:54.687Z,93.24
2017-06-20T00:53:03.580Z,93.24
2017-06-20T00:54:13.120Z,92.56
2017-06-20T00:55:22.410Z,93.28
2017-06-20T00:56:31.630Z,93.48
2017-06-20T00:57:40.523Z,93.91
2017-06-20T00:58:49.416Z,93.43
2017-06-20T00:59:58.635Z,93.62
2017-06-20T01:01:07.907Z,94.01
2017-06-20T01:02:16.800Z,93.43
2017-06-20T01:03:25.693Z,93.72
2017-06-20T01:04:34.585Z,93.72
2017-06-20T01:05:43.477Z,93.52
2017-06-20T01:06:52.371Z,93.04
2017-06-20T01:08:01.913Z,93.04
2017-06-20T01:09:11.131Z,93.62
2017-06-20T01:10:20.028Z,93.72
2017-06-20T01:11:29.247Z,93.62
2017-06-20T01:12:38.146Z,93.43
2017-06-20T01:13:47.363Z,93.81
2017-06-20T01:14:56.263Z,94.2
2017-06-20T01:16:05.156Z,93.91
2017-06-20T01:17:14.054Z,94.1
2017-06-20T01:18:22.996Z,93.81
2017-06-20T01:19:32.213Z,93.81
2017-06-20T01:20:41.114Z,93.91
2017-06-20T01:21:50.657Z,94.1
2017-06-20T01:22:59.873Z,93.72
2017-06-20T01:24:09.572Z,93.48
2017-06-20T01:25:18.462Z,93.57
2017-06-20T01:26:28.004Z,93.52
2017-06-20T01:27:37.222Z,93.96
2017-06-20T01:28:46.115Z,94.64
2017-06-20T01:29:55.310Z,94.15
2017-06-20T01:31:04.527Z,93.57
2017-06-20T01:32:13.419Z,94.15
2017-06-20T01:33:22.313Z,95.02
2017-06-20T01:34:31.529Z,95.12
2017-06-20T01:35:40.904Z,93.96
2017-06-20T01:36:50.010Z,94.15
2017-06-20T01:37:58.901Z,94.06
2017-06-20T01:39:08.121Z,93.57
2017-06-20T01:40:17.012Z,93
2017-06-20T01:41:26.002Z,93.67
2017-06-20T01:42:35.219Z,93.77
2017-06-20T01:43:44.107Z,93.38
2017-06-20T01:44:53.000Z,93.57
2017-06-20T01:46:02.544Z,93.09
2017-06-20T01:47:12.401Z,93.57
2017-06-20T01:48:21.941Z,93.77
2017-06-20T01:49:30.870Z,93.19
2017-06-20T01:50:39.761Z,93
2017-06-20T01:51:48.656Z,92.61
2017-06-20T01:52:58.348Z,92.8
2017-06-20T01:54:07.238Z,93.19
2017-06-20T01:55:16.455Z,93.38
2017-06-20T01:56:25.349Z,93.67
2017-06-20T01:57:34.241Z,91.84
2017-06-20T01:58:43.136Z,93.96
2017-06-20T01:59:52.024Z,93.77
2017-06-20T02:01:00.919Z,93.48
2017-06-20T02:02:09.810Z,93
2017-06-20T02:03:18.700Z,93.48
2017-06-20T02:04:27.691Z,93
2017-06-20T02:05:36.582Z,92.32
2017-06-20T02:06:45.474Z,92.03
2017-06-20T02:07:54.365Z,92.71
2017-06-20T02:09:03.263Z,93.48
2017-06-20T02:10:13.124Z,93.38
2017-06-20T02:11:22.345Z,93.91
2017-06-20T02:12:31.249Z,93.05
2017-06-20T02:13:40.461Z,93.05
2017-06-20T02:14:49.354Z,93.87
2017-06-20T02:15:58.252Z,93.72
2017-06-20T02:17:07.472Z,93.43
2017-06-20T02:18:17.045Z,93.05
2017-06-20T02:19:25.935Z,93.33
2017-06-20T02:20:34.826Z,93.43
2017-06-20T02:21:44.043Z,93.15
2017-06-20T02:22:52.937Z,92.47
2017-06-20T02:24:02.802Z,92.28
2017-06-20T02:25:11.694Z,91.8
2017-06-20T02:26:20.910Z,92.18
2017-06-20T02:27:30.127Z,92.38
2017-06-20T02:28:39.344Z,91.8
2017-06-20T02:29:48.239Z,90.93
2017-06-20T02:30:57.459Z,91.7
2017-06-20T02:32:06.354Z,91.8
2017-06-20T02:33:15.249Z,91.31
2017-06-20T02:34:24.141Z,90.73
2017-06-20T02:35:33.684Z,90.45
2017-06-20T02:36:42.578Z,90.78
2017-06-20T02:37:52.118Z,90.64
2017-06-20T02:39:01.487Z,90.64
2017-06-20T02:40:10.705Z,90.01
2017-06-20T02:41:19.927Z,89.82
2017-06-20T02:42:28.824Z,89.82
2017-06-20T02:43:37.768Z,89.92
2017-06-20T02:44:46.659Z,89.78
2017-06-20T02:45:56.198Z,90.2
2017-06-20T02:47:05.737Z,90.01
2017-06-20T02:48:14.964Z,90.16
2017-06-20T02:49:24.183Z,90.55
2017-06-20T02:50:33.751Z,90.73
2017-06-20T02:51:42.645Z,91.22
2017-06-20T02:52:51.541Z,90.93
2017-06-20T02:54:00.435Z,91.31
2017-06-20T02:55:09.331Z,91.03
2017-06-20T02:56:19.172Z,91.22
2017-06-20T02:57:28.389Z,91.8
2017-06-20T02:58:37.277Z,91.99
2017-06-20T02:59:46.170Z,92.18
2017-06-20T03:00:55.387Z,91.7
2017-06-20T03:02:04.981Z,91.6
2017-06-20T03:03:14.524Z,92.85
2017-06-20T03:04:23.414Z,92.38
2017-06-20T03:05:32.302Z,92.28
2017-06-20T03:06:41.521Z,92.85
2017-06-20T03:07:50.411Z,92.38
2017-06-20T03:08:59.952Z,91.99
2017-06-20T03:10:08.849Z,92.38
2017-06-20T03:11:17.739Z,91.8
2017-06-20T03:12:26.634Z,92.66
2017-06-20T03:13:35.676Z,91.8
2017-06-20T03:14:44.892Z,91.31
2017-06-20T03:15:53.785Z,92.08
2017-06-20T03:17:03.002Z,91.99
2017-06-20T03:18:12.562Z,92.57
2017-06-20T03:19:21.876Z,92.47
2017-06-20T03:20:31.092Z,92.76
2017-06-20T03:21:40.311Z,92.38
2017-06-20T03:22:49.201Z,92.76
2017-06-20T03:23:59.068Z,92.57
2017-06-20T03:25:08.759Z,92.85
2017-06-20T03:26:17.657Z,94.1
2017-06-20T03:27:26.882Z,93.58
2017-06-20T03:28:35.775Z,93.82
2017-06-20T03:29:44.988Z,94.45
2017-06-20T03:30:54.508Z,94.92
2017-06-20T03:32:03.403Z,94.54
2017-06-20T03:33:12.637Z,93.87
2017-06-20T03:34:22.178Z,94.25
2017-06-20T03:35:31.071Z,94.25
2017-06-20T03:36:40.436Z,94.25
2017-06-20T03:37:49.656Z,94.54
2017-06-20T03:38:58.549Z,94.45
2017-06-20T03:40:07.440Z,95.02
2017-06-20T03:41:16.331Z,95.7
2017-06-20T03:42:25.274Z,94.54
2017-06-20T03:43:34.164Z,95.79
2017-06-20T03:44:43.393Z,96.47
2017-06-20T03:45:52.285Z,95.98
2017-06-20T03:47:01.182Z,94.15
2017-06-20T03:48:10.182Z,94.92
2017-06-20T03:49:19.075Z,95.79
2017-06-20T03:50:27.966Z,95.79
2017-06-20T03:51:36.858Z,95.7
2017-06-20T03:52:46.073Z,96.56
2017-06-20T03:53:55.016Z,96.66
2017-06-20T03:55:03.912Z,96.85
2017-06-20T03:56:12.806Z,97.33
2017-06-20T03:57:21.699Z,96.7
2017-06-20T03:58:30.590Z,96.99
2017-06-20T03:59:39.530Z,95.79
2017-06-20T04:00:48.424Z,95.4
2017-06-20T04:01:57.317Z,96.47
2017-06-20T04:03:06.213Z,96.75
2017-06-20T04:04:15.109Z,96.56
2017-06-20T04:05:24.104Z,97.24
2017-06-20T04:06:33.002Z,96.75
2017-06-20T04:07:42.223Z,97.42
2017-06-20T04:08:51.118Z,97.42
2017-06-20T04:10:00.018Z,97.24
2017-06-20T04:11:08.912Z,97.42
2017-06-20T04:12:17.815Z,97.09
2017-06-20T04:13:27.029Z,98.1
2017-06-20T04:14:35.925Z,97.67
2017-06-20T04:15:44.816Z,98.14
2017-06-20T04:16:53.750Z,98.05
2017-06-20T04:18:02.968Z,98.53
2017-06-20T04:19:12.522Z,97.86
2017-06-20T04:20:21.411Z,98
2017-06-20T04:21:30.302Z,98.68
2017-06-20T04:22:39.245Z,97.19
2017-06-20T04:23:48.135Z,98.19
2017-06-20T04:24:57.028Z,98.58
2017-06-20T04:26:06.250Z,97.52
2017-06-20T04:27:15.141Z,98.19
2017-06-20T04:28:24.182Z,98
2017-06-20T04:29:33.079Z,98.19
2017-06-20T04:30:41.972Z,98.1
2017-06-20T04:31:50.865Z,97.91
2017-06-20T04:32:59.759Z,98.1
2017-06-20T04:34:09.078Z,98.19
2017-06-20T04:35:17.972Z,97.52
2017-06-20T04:36:27.187Z,97.91
2017-06-20T04:37:36.078Z,98.1
2017-06-20T04:38:44.973Z,97.42
2017-06-20T04:39:54.394Z,97.42
2017-06-20T04:41:03.286Z,97.24
2017-06-20T04:42:12.559Z,96.56
2017-06-20T04:43:21.459Z,96.94
2017-06-20T04:44:30.350Z,96.99
2017-06-20T04:45:39.877Z,96.94
2017-06-20T04:46:49.423Z,96.27
2017-06-20T04:47:58.378Z,96.99
2017-06-20T04:49:07.971Z,96.37
2017-06-20T04:50:16.867Z,96.42
2017-06-20T04:51:25.911Z,96.03
2017-06-20T04:52:34.810Z,96.03
2017-06-20T04:53:43.699Z,95.84
2017-06-20T04:54:52.913Z,95.84
2017-06-20T04:56:02.459Z,95.26
2017-06-20T04:57:12.001Z,94.87
2017-06-20T04:58:20.891Z,95.07
2017-06-20T04:59:29.782Z,95.74
2017-06-20T05:00:38.997Z,95.84
2017-06-20T05:01:47.886Z,95.65
2017-06-20T05:02:57.217Z,95.84
2017-06-20T05:04:06.431Z,95.84
2017-06-20T05:05:15.327Z,95.45
2017-06-20T05:06:24.222Z,96.32
2017-06-20T05:07:33.116Z,95.65
2017-06-20T05:08:42.483Z,95.84
2017-06-20T05:09:51.384Z,95.36
2017-06-20T05:11:00.279Z,95.84
2017-06-20T05:12:09.823Z,95.36
2017-06-20T05:13:18.723Z,95.26
2017-06-20T05:14:28.089Z,95.26
2017-06-20T05:15:37.307Z,95.65
2017-06-20T05:16:46.204Z,95.65
2017-06-20T05:17:55.098Z,94.78
2017-06-20T05:19:04.318Z,94.78
2017-06-20T05:20:13.213Z,94.01
2017-06-20T05:21:22.108Z,94.2
2017-06-20T05:22:30.997Z,93.67
2017-06-20T05:23:39.891Z,94.01
2017-06-20T05:24:49.105Z,93.67
2017-06-20T05:25:58.747Z,93.53
2017-06-20T05:27:07.965Z,93.96
2017-06-20T05:28:17.181Z,93.67
2017-06-20T05:29:26.075Z,93.72
2017-06-20T05:30:34.969Z,93.19
2017-06-20T05:31:43.968Z,93
2017-06-20T05:32:52.861Z,93
2017-06-20T05:34:02.079Z,93.09
2017-06-20T05:35:11.310Z,93.29
2017-06-20T05:36:20.526Z,93.38
2017-06-20T05:37:29.523Z,92.61
2017-06-20T05:38:38.417Z,92.52
2017-06-20T05:39:47.308Z,92.8
2017-06-20T05:40:56.196Z,92.32
2017-06-20T05:42:05.094Z,92.71
2017-06-20T05:43:14.314Z,93.09
2017-06-20T05:44:23.207Z,92.8
2017-06-20T05:45:32.101Z,92.61
2017-06-20T05:46:40.997Z,92.61
2017-06-20T05:47:50.215Z,92.71
2017-06-20T05:48:59.583Z,92.8
2017-06-20T05:50:08.471Z,92.13
2017-06-20T05:51:17.363Z,91.84
2017-06-20T05:52:26.259Z,92.13
2017-06-20T05:53:35.475Z,91.75
2017-06-20T05:54:44.764Z,92.03
2017-06-20T05:55:53.654Z,91.65
2017-06-20T05:57:02.544Z,92.03
2017-06-20T05:58:11.759Z,92.03
2017-06-20T05:59:20.974Z,92.03
2017-06-20T06:00:29.968Z,92.13
2017-06-20T06:01:39.245Z,91.36
2017-06-20T06:02:48.136Z,91.75
2017-06-20T06:03:57.026Z,91.65
2017-06-20T06:05:06.248Z,91.84
2017-06-20T06:06:15.244Z,91.41
2017-06-20T06:07:24.137Z,91.6
2017-06-20T06:08:33.033Z,91.94
2017-06-20T06:09:41.927Z,92.08
2017-06-20T06:10:50.820Z,92.08
2017-06-20T06:12:00.190Z,92.03
2017-06-20T06:13:09.407Z,92.52
2017-06-20T06:14:18.298Z,92.9
2017-06-20T06:15:27.191Z,92.52
2017-06-20T06:16:36.084Z,93
2017-06-20T06:17:45.406Z,92.85
2017-06-20T06:18:54.320Z,92.94
2017-06-20T06:20:03.226Z,93.04
2017-06-20T06:21:12.444Z,93.14
2017-06-20T06:22:21.663Z,93.14
2017-06-20T06:23:30.711Z,92.94
2017-06-20T06:24:39.609Z,93.91
2017-06-20T06:25:48.830Z,93.14
2017-06-20T06:26:57.726Z,93.04
2017-06-20T06:28:06.618Z,92.85
2017-06-20T06:29:15.560Z,92.76
2017-06-20T06:30:24.451Z,92.85
2017-06-20T06:31:33.345Z,92.76
2017-06-20T06:32:42.566Z,92.76
2017-06-20T06:33:51.789Z,92.85
2017-06-20T06:35:01.009Z,92.47
2017-06-20T06:36:09.909Z,92.56
2017-06-20T06:37:18.805Z,92.27
2017-06-20T06:38:27.740Z,92.37
2017-06-20T06:39:36.638Z,92.32
2017-06-20T06:40:45.684Z,92.66
2017-06-20T06:41:54.948Z,92.27
2017-06-20T06:43:03.841Z,92.27
2017-06-20T06:44:12.735Z,91.69
2017-06-20T06:45:21.627Z,91.89
2017-06-20T06:46:30.674Z,91.55
2017-06-20T06:47:39.563Z,92.13
2017-06-20T06:48:48.462Z,91.89
2017-06-20T06:49:57.355Z,91.36
2017-06-20T06:51:06.571Z,90.88
2017-06-20T06:52:15.869Z,91.12
2017-06-20T06:53:25.089Z,91.02
2017-06-20T06:54:34.684Z,90.39
2017-06-20T06:55:43.580Z,90.58
2017-06-20T06:56:52.475Z,89.43
2017-06-20T06:58:01.899Z,89.81
2017-06-20T06:59:11.446Z,89.62
2017-06-20T07:00:20.667Z,89.04
2017-06-20T07:01:29.884Z,87.79
2017-06-20T07:02:39.104Z,87.7
2017-06-20T07:03:48.623Z,89.33
2017-06-20T07:04:57.520Z,87.79
2017-06-20T07:06:06.413Z,87.6
2017-06-20T07:07:15.637Z,87.3
2017-06-20T07:08:25.185Z,86.63
2017-06-20T07:09:34.506Z,86.54
2017-06-20T07:10:43.725Z,87.02
2017-06-20T07:11:52.947Z,86.63
2017-06-20T07:13:01.843Z,86.82
2017-06-20T07:14:11.066Z,86.54
2017-06-20T07:15:20.393Z,85.77
2017-06-20T07:16:29.627Z,85.57
2017-06-20T07:17:39.496Z,83.88
2017-06-20T07:18:48.397Z,84.17
2017-06-20T07:19:57.618Z,83.3
2017-06-20T07:21:07.638Z,82.92
2017-06-20T07:22:16.861Z,83.2
2017-06-20T07:23:26.739Z,84.07
2017-06-20T07:24:35.638Z,84.65
2017-06-20T07:25:44.858Z,83.69
2017-06-20T07:26:53.754Z,83.59
2017-06-20T07:28:02.976Z,83.69
2017-06-20T07:29:11.877Z,83.3
2017-06-20T07:30:21.426Z,82.72
2017-06-20T07:31:30.647Z,83.01
2017-06-20T07:32:39.695Z,83.01
2017-06-20T07:33:49.565Z,83.59
2017-06-20T07:34:58.790Z,82.72
2017-06-20T07:36:08.656Z,82.53
2017-06-20T07:37:17.873Z,82.14
2017-06-20T07:38:27.470Z,81.27
2017-06-20T07:39:36.696Z,80.99
2017-06-20T07:40:45.915Z,80.02
2017-06-20T07:41:55.140Z,79.93
2017-06-20T07:43:04.036Z,80.51
2017-06-20T07:44:13.532Z,79.83
2017-06-20T07:45:22.430Z,79.06
2017-06-20T07:46:31.647Z,79.25
2017-06-20T07:47:40.868Z,78.86
2017-06-20T07:48:50.088Z,79.44
2017-06-20T07:49:58.983Z,79.83
2017-06-20T07:51:08.201Z,79.06
2017-06-20T07:52:17.124Z,79.83
2017-06-20T07:53:26.345Z,80.22
2017-06-20T07:54:35.576Z,80.99
2017-06-20T07:55:45.326Z,81.76
2017-06-20T07:56:54.542Z,81.66
2017-06-20T07:58:03.757Z,81.12
2017-06-20T07:59:12.651Z,81.51
2017-06-20T08:00:21.549Z,80.45
2017-06-20T08:01:30.598Z,81.41
2017-06-20T08:02:39.495Z,81.02
2017-06-20T08:03:48.390Z,80.93
2017-06-20T08:04:57.286Z,81.12
2017-06-20T08:06:06.505Z,81.9
2017-06-20T08:07:15.830Z,81.9
2017-06-20T08:08:24.726Z,81.8
2017-06-20T08:09:33.627Z,81.41
2017-06-20T08:10:42.522Z,81.8
2017-06-20T08:11:51.769Z,80.35
2017-06-20T08:13:01.052Z,81.32
2017-06-20T08:14:09.947Z,80.93
2017-06-20T08:15:18.844Z,80.93
2017-06-20T08:16:27.742Z,80.93
2017-06-20T08:17:36.959Z,81.41
2017-06-20T08:18:46.628Z,80.93
2017-06-20T08:19:56.506Z,81.16
2017-06-20T08:21:05.397Z,80.87
2017-06-20T08:22:14.941Z,80.83
2017-06-20T08:23:24.163Z,80.45
2017-06-20T08:24:33.056Z,80.3
2017-06-20T08:25:41.953Z,80.1
2017-06-20T08:26:51.492Z,80.49
2017-06-20T08:28:00.716Z,80.39
2017-06-20T08:29:09.935Z,80.3
2017-06-20T08:30:19.633Z,80
2017-06-20T08:31:28.855Z,80.78
2017-06-20T08:32:37.748Z,79.91
2017-06-20T08:33:46.973Z,79.24
2017-06-20T08:34:56.845Z,79.72
2017-06-20T08:36:06.121Z,78.75
2017-06-20T08:37:15.342Z,78.66
2017-06-20T08:38:24.885Z,78.85
2017-06-20T08:39:34.106Z,78.27
2017-06-20T08:40:43.005Z,78.56
2017-06-20T08:41:52.382Z,78.08
2017-06-20T08:43:02.253Z,78.27
2017-06-20T08:44:11.475Z,77.59
2017-06-20T08:45:20.378Z,77.5
2017-06-20T08:46:29.275Z,77.69
2017-06-20T08:47:38.654Z,77.05
2017-06-20T08:48:47.885Z,77.63
2017-06-20T08:49:57.104Z,77.73
2017-06-20T08:51:06.325Z,78.02
2017-06-20T08:52:15.552Z,77.5
2017-06-20T08:53:24.853Z,77.44
2017-06-20T08:54:34.069Z,77.34
2017-06-20T08:55:42.968Z,77.73
2017-06-20T08:56:51.866Z,78.02
2017-06-20T08:58:01.086Z,78.89
2017-06-20T08:59:09.979Z,78.5
2017-06-20T09:00:18.878Z,78.11
2017-06-20T09:01:27.777Z,78.21
2017-06-20T09:02:36.680Z,77.63
2017-06-20T09:03:45.584Z,78.21
2017-06-20T09:04:54.782Z,75.6
2017-06-20T09:06:03.680Z,74.58
2017-06-20T09:07:12.583Z,73.71
2017-06-20T09:08:21.483Z,74.48
2017-06-20T09:09:30.394Z,74.87
2017-06-20T09:10:39.343Z,73.61
2017-06-20T09:11:48.565Z,73.03
2017-06-20T09:12:57.466Z,74
2017-06-20T09:14:06.691Z,73.61
2017-06-20T09:15:15.587Z,75.06
2017-06-20T09:16:24.489Z,74.96
2017-06-20T09:17:33.384Z,74.77
2017-06-20T09:18:42.283Z,75.06
2017-06-20T09:19:51.520Z,75.84
2017-06-20T09:21:00.740Z,76.03
2017-06-20T09:22:09.793Z,75.68
2017-06-20T09:23:19.012Z,76.26
2017-06-20T09:24:27.910Z,76.35
2017-06-20T09:25:36.805Z,75.39
2017-06-20T09:26:45.700Z,75
2017-06-20T09:27:54.921Z,74.32
2017-06-20T09:29:03.825Z,74.71
2017-06-20T09:30:13.050Z,74.32
2017-06-20T09:31:21.946Z,74.13
2017-06-20T09:32:30.851Z,72.2
2017-06-20T09:33:40.220Z,72.2
2017-06-20T09:34:49.450Z,71.91
2017-06-20T09:35:58.379Z,72.1
2017-06-20T09:37:07.278Z,72.04
2017-06-20T09:38:16.174Z,72.88
2017-06-20T09:39:25.376Z,73.07
2017-06-20T09:40:34.271Z,72.88
2017-06-20T09:41:43.168Z,73.59
2017-06-20T09:42:52.385Z,73.1
2017-06-20T09:44:01.610Z,73.59
2017-06-20T09:45:10.880Z,73.39
2017-06-20T09:46:20.103Z,73.39
2017-06-20T09:47:29.000Z,73.49
2017-06-20T09:48:37.896Z,73.49
2017-06-20T09:49:46.794Z,74.07
2017-06-20T09:50:55.744Z,74.36
2017-06-20T09:52:04.967Z,73.78
2017-06-20T09:53:14.193Z,72.72
2017-06-20T09:54:23.095Z,72.33
2017-06-20T09:55:32.318Z,72.75
2017-06-20T09:56:41.263Z,70.24
2017-06-20T09:57:50.803Z,71.2
2017-06-20T09:58:59.702Z,71.2
2017-06-20T10:00:08.617Z,71.88
2017-06-20T10:01:17.518Z,71.01
2017-06-20T10:02:26.463Z,71.88
2017-06-20T10:03:35.689Z,70.62
2017-06-20T10:04:44.589Z,70.24
2017-06-20T10:05:53.816Z,70.72
2017-06-20T10:07:02.711Z,70.56
2017-06-20T10:08:11.711Z,69.27
2017-06-20T10:09:20.944Z,69.21
2017-06-20T10:10:30.166Z,68.73
2017-06-20T10:11:39.423Z,68.63
2017-06-20T10:12:48.652Z,67.56
2017-06-20T10:13:57.974Z,67.6
2017-06-20T10:15:06.871Z,68.18
2017-06-20T10:16:15.774Z,68.18
2017-06-20T10:17:24.676Z,67.88
2017-06-20T10:18:33.906Z,68.47
2017-06-20T10:19:44.160Z,68.56
2017-06-20T10:20:53.062Z,69.5
2017-06-20T10:22:01.964Z,68.63
2017-06-20T10:23:11.840Z,69.43
2017-06-20T10:24:20.775Z,68.18
2017-06-20T10:25:29.871Z,69.15
2017-06-20T10:26:38.770Z,68.85
2017-06-20T10:27:47.994Z,68.95
2017-06-20T10:28:56.894Z,69.15
2017-06-20T10:30:05.794Z,69.24
2017-06-20T10:31:14.744Z,69.53
2017-06-20T10:32:23.640Z,69.5
2017-06-20T10:33:32.538Z,70.01
2017-06-20T10:34:41.762Z,68.95
2017-06-20T10:35:50.664Z,69.53
2017-06-20T10:37:00.211Z,68.66
2017-06-20T10:38:09.771Z,68.66
2017-06-20T10:39:18.679Z,68.18
2017-06-20T10:40:27.581Z,67.6
2017-06-20T10:41:36.811Z,67.69
2017-06-20T10:42:46.033Z,68.66
2017-06-20T10:43:54.929Z,67.3
2017-06-20T10:45:03.831Z,67.02
2017-06-20T10:46:13.063Z,67.5
2017-06-20T10:47:21.963Z,66.34
2017-06-20T10:48:31.190Z,66.53
2017-06-20T10:49:40.127Z,65.56
2017-06-20T10:50:49.354Z,66.85
2017-06-20T10:51:58.582Z,67.02
2017-06-20T10:53:07.804Z,67.72
2017-06-20T10:54:17.506Z,67.6
2017-06-20T10:55:26.728Z,67.02
2017-06-20T10:56:35.628Z,67.44
2017-06-20T10:57:44.521Z,67.6
2017-06-20T10:58:53.416Z,66.72
2017-06-20T11:00:02.415Z,66.56
2017-06-20T11:01:11.638Z,66.89
2017-06-20T11:02:20.538Z,65.89
2017-06-20T11:03:29.435Z,65.5
2017-06-20T11:04:38.336Z,64.62
2017-06-20T11:05:47.662Z,64.34
2017-06-20T11:06:56.568Z,64.07
2017-06-20T11:08:05.468Z,64.95
2017-06-20T11:09:14.369Z,64.24
2017-06-20T11:10:23.921Z,64.07
2017-06-20T11:11:32.967Z,63.4
2017-06-20T11:12:41.867Z,63.98
2017-06-20T11:13:50.766Z,64.85
2017-06-20T11:15:00.314Z,63.91
2017-06-20T11:16:09.213Z,63.23
2017-06-20T11:17:18.114Z,63.43
2017-06-20T11:18:27.016Z,63.13
2017-06-20T11:19:36.256Z,64.3
2017-06-20T11:20:45.810Z,64.59
2017-06-20T11:21:54.713Z,65.75
2017-06-20T11:23:04.089Z,65.95
2017-06-20T11:24:13.317Z,64.95
2017-06-20T11:25:22.213Z,64.98
2017-06-20T11:26:31.436Z,64.59
2017-06-20T11:27:40.344Z,64.11
2017-06-20T11:28:49.669Z,64.01
2017-06-20T11:29:58.566Z,64.5
2017-06-20T11:31:07.464Z,64.11
2017-06-20T11:32:16.370Z,64.4
2017-06-20T11:33:25.595Z,65.08
2017-06-20T11:34:34.917Z,64.72
2017-06-20T11:35:44.142Z,65.59
2017-06-20T11:36:53.368Z,65.69
2017-06-20T11:38:02.267Z,65.37
2017-06-20T11:39:11.168Z,66.08
2017-06-20T11:40:20.116Z,65.79
2017-06-20T11:41:29.017Z,65.98
2017-06-20T11:42:37.922Z,66.56
2017-06-20T11:43:47.801Z,65.3
2017-06-20T11:44:56.700Z,65.69
2017-06-20T11:46:05.927Z,65.5
2017-06-20T11:47:15.149Z,65.01
2017-06-20T11:48:24.373Z,64.72
2017-06-20T11:49:33.612Z,64.14
2017-06-20T11:50:43.163Z,63.07
2017-06-20T11:51:53.444Z,63.26
2017-06-20T11:53:02.578Z,63.39
2017-06-20T11:54:11.485Z,64.04
2017-06-20T11:55:20.711Z,63.36
2017-06-20T11:56:29.941Z,63.46
2017-06-20T11:57:38.896Z,62.04
2017-06-20T11:58:48.122Z,62.32
2017-06-20T11:59:57.679Z,62.23
2017-06-20T12:01:06.589Z,61.94
2017-06-20T12:02:15.495Z,61.84
2017-06-20T12:03:24.776Z,62.04
2017-06-20T12:04:34.007Z,61.55
2017-06-20T12:05:42.912Z,59.8
2017-06-20T12:06:52.233Z,59.8
2017-06-20T12:08:01.465Z,61.48
2017-06-20T12:09:10.702Z,62.04
2017-06-20T12:10:20.260Z,61.29
2017-06-20T12:11:29.168Z,60.28
2017-06-20T12:12:38.400Z,60.97
2017-06-20T12:13:47.310Z,60.68
2017-06-20T12:14:56.594Z,58.83
2017-06-20T12:16:05.826Z,59.7
2017-06-20T12:17:16.036Z,59.92
2017-06-20T12:18:26.243Z,60.68
2017-06-20T12:19:36.121Z,59.31
2017-06-20T12:20:46.003Z,59.34
2017-06-20T12:21:55.235Z,59.15
2017-06-20T12:23:04.472Z,59.05
2017-06-20T12:24:14.024Z,59.61
2017-06-20T12:25:23.259Z,59.61
2017-06-20T12:26:32.417Z,59.22
2017-06-20T12:27:41.653Z,59.22
2017-06-20T12:28:50.563Z,59.51
2017-06-20T12:29:59.477Z,60.77
2017-06-20T12:31:08.706Z,60.58
2017-06-20T12:32:18.319Z,60.68
2017-06-20T12:33:27.550Z,60.74
2017-06-20T12:34:37.107Z,60.55
2017-06-20T12:35:46.334Z,60.64
2017-06-20T12:36:55.238Z,60.45
2017-06-20T12:38:04.791Z,60.55
2017-06-20T12:39:14.022Z,61.32
2017-06-20T12:40:23.250Z,60.64
2017-06-20T12:41:32.483Z,60.19
2017-06-20T12:42:41.390Z,59.97
2017-06-20T12:43:50.620Z,60
2017-06-20T12:44:59.532Z,59.12
2017-06-20T12:46:09.415Z,58.73
2017-06-20T12:47:18.658Z,59.7
2017-06-20T12:48:28.213Z,59.03
2017-06-20T12:49:37.917Z,58.93
2017-06-20T12:50:47.169Z,58.64
2017-06-20T12:51:56.395Z,58.73
2017-06-20T12:53:05.952Z,59.12
2017-06-20T12:54:14.856Z,59.25
2017-06-20T12:55:23.862Z,58.95
2017-06-20T12:56:32.773Z,58.57
2017-06-20T12:57:41.687Z,58.76
2017-06-20T12:58:51.241Z,58.76
2017-06-20T13:00:00.147Z,59.03
2017-06-20T13:01:09.706Z,59.7
2017-06-20T13:02:18.934Z,59.51
2017-06-20T13:03:27.837Z,58.57
2017-06-20T13:04:37.388Z,58.76
2017-06-20T13:05:46.947Z,59.34
2017-06-20T13:06:56.185Z,59.15
2017-06-20T13:08:05.091Z,59.05
2017-06-20T13:09:14.001Z,59.15
2017-06-20T13:10:22.912Z,58.76
2017-06-20T13:11:32.155Z,58.08
2017-06-20T13:12:41.535Z,58.28
2017-06-20T13:13:50.767Z,57.98
2017-06-20T13:14:59.667Z,58.95
2017-06-20T13:16:08.575Z,58.83
2017-06-20T13:17:18.452Z,58.08
2017-06-20T13:18:27.363Z,58.08
2017-06-20T13:19:36.278Z,57.98
2017-06-20T13:20:45.183Z,57.57
2017-06-20T13:21:54.095Z,57.86
2017-06-20T13:23:03.650Z,57.76
2017-06-20T13:24:13.261Z,57.67
2017-06-20T13:25:22.172Z,57.93
2017-06-20T13:26:31.403Z,58.34
2017-06-20T13:27:40.636Z,58.83
2017-06-20T13:28:49.951Z,58.25
2017-06-20T13:29:59.302Z,57.96
2017-06-20T13:31:08.219Z,57.96
2017-06-20T13:32:17.771Z,57.67
2017-06-20T13:33:27.009Z,57.47
2017-06-20T13:34:36.240Z,57.28
2017-06-20T13:35:45.688Z,57.08
2017-06-20T13:36:54.596Z,56.52
2017-06-20T13:38:04.148Z,56.72
2017-06-20T13:39:13.700Z,56.62
2017-06-20T13:40:22.604Z,56.92
2017-06-20T13:41:31.662Z,56.52
2017-06-20T13:42:40.566Z,56.89
2017-06-20T13:43:49.796Z,55.33
2017-06-20T13:44:59.351Z,56.89
2017-06-20T13:46:08.310Z,56.11
2017-06-20T13:47:17.919Z,55.36
2017-06-20T13:48:26.833Z,55.36
2017-06-20T13:49:36.071Z,55.46
2017-06-20T13:50:44.977Z,54.68
2017-06-20T13:51:54.548Z,54.49
2017-06-20T13:53:04.578Z,55.65
2017-06-20T13:54:14.461Z,54.75
2017-06-20T13:55:23.367Z,54.88
2017-06-20T13:56:32.923Z,55.04
2017-06-20T13:57:42.158Z,56.4
2017-06-20T13:58:51.718Z,55.33
2017-06-20T14:00:00.628Z,54.27
2017-06-20T14:01:09.537Z,54.46
2017-06-20T14:02:19.137Z,53.88
2017-06-20T14:03:28.697Z,54.36
2017-06-20T14:04:38.358Z,53
2017-06-20T14:05:47.585Z,53.2
2017-06-20T14:06:56.837Z,52.52
2017-06-20T14:08:06.419Z,52.62
2017-06-20T14:09:15.673Z,54.07
2017-06-20T14:10:24.929Z,53.39
2017-06-20T14:11:34.492Z,52.06
2017-06-20T14:12:43.722Z,51.57
2017-06-20T14:13:52.991Z,51.67
2017-06-20T14:15:01.914Z,51.57
2017-06-20T14:16:11.340Z,51.67
2017-06-20T14:17:20.249Z,52.25
2017-06-20T14:18:30.454Z,50.7
2017-06-20T14:19:39.698Z,50.99
2017-06-20T14:20:48.931Z,50.02
2017-06-20T14:21:58.564Z,49.76
2017-06-20T14:23:07.476Z,49.17
2017-06-20T14:24:16.760Z,49.37
2017-06-20T14:25:25.991Z,49.37
2017-06-20T14:26:34.897Z,48.97
2017-06-20T14:27:44.567Z,48.8
2017-06-20T14:28:54.138Z,48.61
2017-06-20T14:30:03.373Z,48.22
2017-06-20T14:31:12.282Z,47.76
2017-06-20T14:32:21.192Z,48.93
2017-06-20T14:33:30.425Z,48.41
2017-06-20T14:34:39.662Z,47.47
2017-06-20T14:35:48.587Z,48.05
2017-06-20T14:36:57.498Z,47.17
2017-06-20T14:38:06.738Z,47.17
2017-06-20T14:39:15.647Z,46.98
2017-06-20T14:40:24.560Z,47
2017-06-20T14:41:33.806Z,46.23
2017-06-20T14:42:43.038Z,46.81
2017-06-20T14:43:51.944Z,46.71
2017-06-20T14:45:01.005Z,46.81
2017-06-20T14:46:09.916Z,46.54
2017-06-20T14:47:19.155Z,46.61
2017-06-20T14:48:28.719Z,46.15
2017-06-20T14:49:37.959Z,46.25
2017-06-20T14:50:47.021Z,46.05
2017-06-20T14:51:56.582Z,45.95
2017-06-20T14:53:05.823Z,45.76
2017-06-20T14:54:14.729Z,45.2